Terminal Aerodrome Forecast
Issued by NWS

Home | Current Version | Previous Version | Text Only | Print | Product List | Glossary On
Versions: 1 2 3 4 5 6 7 8 9 10 11 12 13 14 15 16 17
000
FTUS46 KSEW 160524
TAFCLM
TAF
KCLM 160524Z 1606/1706 27006KT P6SM FEW030 SCT100
     FM161500 VRB04KT P6SM SCT030 OVC060
     FM162100 VRB04KT P6SM -RA SCT030 OVC040=

USA.gov is the U.S. government's official web portal to all federal, state and local government web resources and services.